Time;durP1;ratioP1;P1;durP2;ratioP2;P2;SDS_P1;SDS_P2;PMS_P1;PMS_P2;Temp;Humidity;BMP_temperature;BMP_pressure;BME280_temperature;BME280_humidity;BME280_pressure;Samples;Min_cycle;Max_cycle;Signal;HPM_P1;HPM_P2
2021/05/31 00:01:44;;;;;;;4.25;3.15;;;;;;;;;;6206081;28;20397;-68
2021/05/31 00:04:45;;;;;;;5.25;2.65;;;;;;;;;;6204899;28;20141;-69
2021/05/31 00:07:46;;;;;;;4.15;3.20;;;;;;;;;;6209577;28;20492;-66
2021/05/31 00:10:48;;;;;;;3.13;2.80;;;;;;;;;;6206040;28;20504;-67
2021/05/31 00:13:50;;;;;;;4.38;3.10;;;;;;;;;;6209752;28;20561;-69
2021/05/31 00:16:51;;;;;;;4.68;2.65;;;;;;;;;;6201011;28;20374;-69
2021/05/31 00:19:53;;;;;;;4.32;2.80;;;;;;;;;;6203641;28;20480;-66
2021/05/31 00:22:54;;;;;;;3.03;2.72;;;;;;;;;;6210188;28;20088;-67
2021/05/31 00:25:56;;;;;;;8.35;3.60;;;;;;;;;;6210513;28;20099;-75
2021/05/31 00:28:57;;;;;;;4.03;2.90;;;;;;;;;;6222033;28;20682;-68
2021/05/31 00:31:58;;;;;;;9.95;3.00;;;;;;;;;;6221867;28;20457;-64
2021/05/31 00:35:00;;;;;;;3.10;2.80;;;;;;;;;;6217863;28;20588;-69
2021/05/31 00:38:07;;;;;;;4.72;3.00;;;;;;;;;;6219789;28;20134;-67
2021/05/31 00:41:09;;;;;;;6.50;2.95;;;;;;;;;;6216222;28;20136;-70
2021/05/31 00:44:10;;;;;;;3.13;2.78;;;;;;;;;;6215470;28;20068;-67
2021/05/31 00:47:11;;;;;;;4.93;2.92;;;;;;;;;;6215486;28;20072;-67
2021/05/31 00:50:14;;;;;;;3.20;2.90;;;;;;;;;;6208273;28;20053;-67
2021/05/31 00:53:15;;;;;;;4.25;2.47;;;;;;;;;;6208108;28;20148;-67
2021/05/31 00:56:18;;;;;;;4.85;2.30;;;;;;;;;;6223808;28;20128;-73
2021/05/31 00:59:19;;;;;;;2.97;2.58;;;;;;;;;;6215796;28;20073;-71
2021/05/31 01:02:20;;;;;;;2.75;2.20;;;;;;;;;;6205057;28;20050;-72
2021/05/31 01:05:24;;;;;;;3.60;2.50;;;;;;;;;;6499026;23;20145;-68
2021/05/31 01:08:28;;;;;;;2.45;1.98;;;;;;;;;;6218663;28;20128;-68
2021/05/31 01:11:33;;;;;;;2.60;2.08;;;;;;;;;;6231050;28;20127;-67
2021/05/31 01:14:42;;;;;;;2.42;2.00;;;;;;;;;;6220296;28;20133;-67
2021/05/31 01:17:51;;;;;;;2.70;1.90;;;;;;;;;;6222174;28;20050;-68
2021/05/31 01:21:03;;;;;;;1.88;1.67;;;;;;;;;;6225759;28;20141;-67
2021/05/31 01:24:12;;;;;;;3.90;1.75;;;;;;;;;;6229860;28;20042;-67
2021/05/31 01:27:26;;;;;;;1.90;1.70;;;;;;;;;;6226180;28;20077;-69
2021/05/31 01:30:29;;;;;;;1.88;1.52;;;;;;;;;;6222625;28;20141;-68
2021/05/31 01:33:31;;;;;;;1.83;1.52;;;;;;;;;;6219458;28;20153;-67
2021/05/31 01:36:34;;;;;;;4.85;1.70;;;;;;;;;;6214235;28;20107;-67
2021/05/31 01:39:38;;;;;;;1.95;1.52;;;;;;;;;;6215988;28;20161;-67
2021/05/31 01:42:40;;;;;;;2.80;1.80;;;;;;;;;;6217813;28;20084;-68
2021/05/31 01:45:43;;;;;;;3.05;1.50;;;;;;;;;;6217781;28;20125;-67
2021/05/31 01:48:45;;;;;;;3.15;1.60;;;;;;;;;;6201125;28;20184;-68
2021/05/31 01:51:47;;;;;;;2.53;1.75;;;;;;;;;;6219923;28;20396;-68
2021/05/31 01:54:49;;;;;;;1.95;1.75;;;;;;;;;;6222827;28;20062;-68
2021/05/31 01:57:50;;;;;;;2.05;1.67;;;;;;;;;;6215351;28;20132;-68
2021/05/31 02:00:53;;;;;;;5.05;1.70;;;;;;;;;;6214967;28;20050;-69
2021/05/31 02:03:54;;;;;;;2.92;1.70;;;;;;;;;;6217157;28;20132;-68
2021/05/31 02:06:55;;;;;;;2.78;1.58;;;;;;;;;;6213650;28;20465;-67
2021/05/31 02:09:57;;;;;;;3.22;1.60;;;;;;;;;;6219473;28;20443;-68
2021/05/31 02:12:59;;;;;;;2.67;1.55;;;;;;;;;;6229871;28;20059;-68
2021/05/31 02:16:07;;;;;;;2.70;1.60;;;;;;;;;;6234989;28;20128;-68
2021/05/31 02:19:10;;;;;;;2.47;1.50;;;;;;;;;;6218227;28;20116;-67
2021/05/31 02:22:12;;;;;;;3.75;1.70;;;;;;;;;;6206968;28;20046;-68
2021/05/31 02:25:14;;;;;;;2.10;1.65;;;;;;;;;;6216996;28;20058;-67
2021/05/31 02:28:16;;;;;;;3.55;1.60;;;;;;;;;;6219495;28;20133;-68
2021/05/31 02:31:19;;;;;;;3.92;1.40;;;;;;;;;;6215943;28;20056;-68
2021/05/31 02:34:20;;;;;;;2.20;1.45;;;;;;;;;;6229720;28;20156;-68
2021/05/31 02:37:25;;;;;;;2.72;1.50;;;;;;;;;;6212252;28;20400;-68
2021/05/31 02:40:26;;;;;;;2.35;1.15;;;;;;;;;;6213731;28;20477;-68
2021/05/31 02:43:27;;;;;;;2.67;1.42;;;;;;;;;;6220579;28;20046;-68
2021/05/31 02:46:30;;;;;;;2.55;1.30;;;;;;;;;;6217591;28;20203;-68
2021/05/31 02:49:31;;;;;;;1.67;1.20;;;;;;;;;;6218978;28;20043;-68
2021/05/31 02:52:33;;;;;;;2.47;1.10;;;;;;;;;;6217565;28;20226;-67
2021/05/31 02:55:37;;;;;;;1.20;0.98;;;;;;;;;;6215806;28;20129;-67
2021/05/31 02:58:38;;;;;;;1.95;1.30;;;;;;;;;;6223429;28;20068;-68
2021/05/31 03:01:40;;;;;;;2.17;1.25;;;;;;;;;;6219365;28;20519;-68
2021/05/31 03:04:41;;;;;;;4.93;1.35;;;;;;;;;;6223299;28;20129;-68
2021/05/31 03:07:43;;;;;;;3.83;1.42;;;;;;;;;;6216706;28;20077;-68
2021/05/31 03:10:44;;;;;;;4.20;1.30;;;;;;;;;;6216542;28;20060;-67
2021/05/31 03:13:45;;;;;;;3.72;1.30;;;;;;;;;;6216854;28;20062;-67
2021/05/31 03:16:47;;;;;;;3.03;1.10;;;;;;;;;;6217391;28;20078;-68
2021/05/31 03:19:48;;;;;;;2.22;1.60;;;;;;;;;;6215917;28;20699;-67
2021/05/31 03:22:50;;;;;;;2.83;1.30;;;;;;;;;;6209322;28;20222;-67
2021/05/31 03:25:51;;;;;;;1.63;1.20;;;;;;;;;;6215038;28;20065;-67
2021/05/31 03:28:52;;;;;;;2.15;1.60;;;;;;;;;;6213807;28;20053;-68
2021/05/31 03:31:54;;;;;;;1.95;1.50;;;;;;;;;;6211286;28;20056;-68
2021/05/31 03:34:55;;;;;;;2.00;1.60;;;;;;;;;;6203971;28;20150;-68
2021/05/31 03:37:57;;;;;;;14.63;1.85;;;;;;;;;;6214051;28;20137;-68
2021/05/31 03:40:58;;;;;;;1.85;1.15;;;;;;;;;;6215927;28;20750;-68
2021/05/31 03:43:59;;;;;;;3.22;1.52;;;;;;;;;;6211359;28;20129;-68
2021/05/31 03:47:01;;;;;;;3.20;1.48;;;;;;;;;;6214726;28;20074;-67
2021/05/31 03:50:03;;;;;;;2.92;1.55;;;;;;;;;;6210175;28;20046;-67
2021/05/31 03:53:04;;;;;;;7.05;1.33;;;;;;;;;;6221094;28;20034;-67
2021/05/31 03:56:06;;;;;;;1.75;1.25;;;;;;;;;;6209827;28;20195;-67
2021/05/31 03:59:08;;;;;;;2.30;1.70;;;;;;;;;;6214869;28;20052;-67
2021/05/31 04:02:11;;;;;;;1.67;1.38;;;;;;;;;;6214815;28;20057;-68
2021/05/31 04:05:15;;;;;;;2.53;1.60;;;;;;;;;;6217180;28;20175;-68
2021/05/31 04:11:36;;;;;;;3.95;1.70;;;;;;;;;;6212509;28;20665;-68
2021/05/31 04:14:37;;;;;;;3.05;1.88;;;;;;;;;;6218746;28;20056;-67
2021/05/31 04:17:39;;;;;;;2.88;2.03;;;;;;;;;;6215347;28;20144;-67
2021/05/31 04:20:40;;;;;;;3.17;1.73;;;;;;;;;;6215729;28;20058;-67
2021/05/31 04:23:42;;;;;;;3.00;1.67;;;;;;;;;;6213114;28;20052;-67
2021/05/31 04:26:46;;;;;;;2.53;1.80;;;;;;;;;;6212192;28;20563;-68
2021/05/31 04:29:47;;;;;;;4.60;1.75;;;;;;;;;;6205728;28;20084;-68
2021/05/31 04:32:50;;;;;;;4.13;1.60;;;;;;;;;;6208507;28;20524;-68
2021/05/31 04:35:51;;;;;;;3.20;2.00;;;;;;;;;;6203977;28;20042;-67
2021/05/31 04:38:52;;;;;;;5.32;1.77;;;;;;;;;;6204064;28;20065;-67
2021/05/31 04:41:53;;;;;;;2.10;1.65;;;;;;;;;;6207671;28;20046;-68
2021/05/31 04:44:54;;;;;;;3.30;1.70;;;;;;;;;;6205292;28;20058;-68
2021/05/31 04:47:57;;;;;;;4.30;1.48;;;;;;;;;;6199433;28;20080;-68
2021/05/31 04:50:59;;;;;;;4.40;1.90;;;;;;;;;;6225355;28;20129;-68
2021/05/31 04:54:00;;;;;;;2.40;1.70;;;;;;;;;;6219231;28;20073;-68
2021/05/31 04:57:01;;;;;;;5.35;2.03;;;;;;;;;;6215244;28;20049;-68
2021/05/31 05:00:03;;;;;;;4.40;1.98;;;;;;;;;;6209517;28;20060;-68
2021/05/31 05:03:05;;;;;;;2.80;1.65;;;;;;;;;;6210624;28;20050;-67
2021/05/31 05:06:06;;;;;;;3.47;1.65;;;;;;;;;;6206162;28;20139;-68
2021/05/31 05:09:08;;;;;;;2.03;1.60;;;;;;;;;;6204494;28;20173;-68
2021/05/31 05:12:09;;;;;;;2.65;1.70;;;;;;;;;;6204344;28;20108;-68
2021/05/31 05:15:11;;;;;;;5.70;1.80;;;;;;;;;;6204564;28;20141;-67
2021/05/31 05:18:13;;;;;;;5.15;1.98;;;;;;;;;;6203443;28;20068;-68
2021/05/31 05:21:16;;;;;;;3.35;2.15;;;;;;;;;;6209218;28;20140;-68
2021/05/31 05:24:17;;;;;;;4.60;1.88;;;;;;;;;;6208246;28;20046;-68
2021/05/31 05:27:18;;;;;;;4.15;1.85;;;;;;;;;;6213365;28;20141;-68
2021/05/31 05:30:22;;;;;;;4.10;1.80;;;;;;;;;;6207822;28;20145;-68
2021/05/31 05:33:24;;;;;;;4.32;1.80;;;;;;;;;;6203292;28;20553;-68
2021/05/31 05:36:31;;;;;;;3.55;1.80;;;;;;;;;;6204907;28;20620;-67
2021/05/31 05:39:54;;;;;;;4.93;1.92;;;;;;;;;;6213626;28;20050;-70
2021/05/31 05:43:05;;;;;;;6.72;2.15;;;;;;;;;;6213577;28;20076;-67
2021/05/31 05:49:23;;;;;;;5.70;1.52;;;;;;;;;;6208497;28;20053;-69
2021/05/31 05:52:24;;;;;;;6.00;1.80;;;;;;;;;;6211180;28;20054;-69
2021/05/31 05:55:25;;;;;;;3.90;1.90;;;;;;;;;;6213783;28;20049;-68
2021/05/31 05:58:29;;;;;;;4.63;1.92;;;;;;;;;;6226246;28;20145;-67
2021/05/31 06:01:30;;;;;;;4.38;2.00;;;;;;;;;;6212178;28;20112;-69
2021/05/31 06:04:34;;;;;;;4.55;1.83;;;;;;;;;;6198663;28;20050;-68
2021/05/31 06:07:35;;;;;;;4.20;1.80;;;;;;;;;;6207210;28;20076;-69
2021/05/31 06:10:36;;;;;;;3.67;1.92;;;;;;;;;;6208272;28;20176;-67
2021/05/31 06:13:40;;;;;;;4.07;2.25;;;;;;;;;;6218969;28;20136;-67
2021/05/31 06:16:41;;;;;;;7.53;2.10;;;;;;;;;;6211068;28;20061;-68
2021/05/31 06:19:43;;;;;;;6.47;2.03;;;;;;;;;;6210785;28;20082;-68
2021/05/31 06:22:44;;;;;;;5.07;2.28;;;;;;;;;;6210691;28;20270;-67
2021/05/31 06:25:46;;;;;;;5.93;2.25;;;;;;;;;;6212876;28;20183;-69
2021/05/31 06:28:47;;;;;;;5.10;2.38;;;;;;;;;;6198585;28;20133;-68
2021/05/31 06:31:48;;;;;;;3.33;2.20;;;;;;;;;;6211927;28;20069;-67
2021/05/31 06:34:50;;;;;;;6.13;2.38;;;;;;;;;;6211349;28;20048;-68
2021/05/31 06:37:51;;;;;;;6.65;2.50;;;;;;;;;;6210113;28;20383;-68
2021/05/31 06:40:53;;;;;;;6.70;2.38;;;;;;;;;;6212566;28;20128;-68
2021/05/31 06:43:54;;;;;;;3.78;2.30;;;;;;;;;;6208510;28;20084;-68
2021/05/31 06:46:55;;;;;;;11.88;2.63;;;;;;;;;;6208223;28;20057;-67
2021/05/31 06:49:57;;;;;;;5.22;2.42;;;;;;;;;;6207781;28;20042;-67
2021/05/31 06:52:59;;;;;;;5.88;2.60;;;;;;;;;;6225299;28;20140;-67
2021/05/31 06:56:00;;;;;;;5.25;2.53;;;;;;;;;;6210520;28;20050;-68
2021/05/31 06:59:01;;;;;;;5.78;2.63;;;;;;;;;;6211753;28;20049;-67
2021/05/31 07:02:03;;;;;;;8.02;2.70;;;;;;;;;;6206394;28;20476;-68
2021/05/31 07:05:07;;;;;;;3.88;2.95;;;;;;;;;;6203020;28;20460;-67
2021/05/31 07:08:08;;;;;;;4.25;2.38;;;;;;;;;;6213123;28;20060;-68
2021/05/31 07:11:12;;;;;;;5.28;2.65;;;;;;;;;;6207620;28;20049;-70
2021/05/31 07:14:19;;;;;;;11.32;2.40;;;;;;;;;;6215792;28;20479;-68
2021/05/31 07:17:20;;;;;;;6.22;2.92;;;;;;;;;;6219081;28;20397;-69
2021/05/31 07:20:23;;;;;;;4.43;2.55;;;;;;;;;;6217652;28;20050;-69
2021/05/31 07:23:24;;;;;;;7.03;2.60;;;;;;;;;;6223262;28;20119;-68
2021/05/31 07:26:25;;;;;;;5.97;2.72;;;;;;;;;;6208528;28;20049;-67
2021/05/31 07:29:26;;;;;;;3.72;2.55;;;;;;;;;;6212591;28;20133;-68
2021/05/31 07:32:28;;;;;;;5.28;2.80;;;;;;;;;;6210962;28;20572;-68
2021/05/31 07:35:30;;;;;;;5.22;2.50;;;;;;;;;;6213559;28;20491;-68
2021/05/31 07:38:31;;;;;;;6.85;2.58;;;;;;;;;;6220367;28;20041;-68
2021/05/31 07:41:33;;;;;;;3.55;2.13;;;;;;;;;;6218601;28;20137;-68
2021/05/31 07:44:35;;;;;;;4.78;2.50;;;;;;;;;;6215515;28;20904;-68
2021/05/31 07:47:36;;;;;;;3.40;2.70;;;;;;;;;;6219930;28;20059;-67
2021/05/31 07:50:39;;;;;;;5.28;2.50;;;;;;;;;;6218746;28;20148;-67
2021/05/31 07:53:41;;;;;;;4.30;2.58;;;;;;;;;;6224107;28;20058;-67
2021/05/31 07:56:42;;;;;;;4.53;2.63;;;;;;;;;;6222617;28;20090;-67
2021/05/31 07:59:45;;;;;;;3.63;2.70;;;;;;;;;;6209238;28;20515;-67
2021/05/31 08:02:48;;;;;;;6.43;2.55;;;;;;;;;;6210036;28;20049;-67
2021/05/31 08:05:51;;;;;;;4.70;2.90;;;;;;;;;;6204188;28;20189;-67
2021/05/31 08:08:52;;;;;;;3.83;2.80;;;;;;;;;;6215921;28;20046;-69
2021/05/31 08:11:53;;;;;;;4.35;2.67;;;;;;;;;;6202220;28;20062;-67
2021/05/31 08:14:54;;;;;;;6.28;2.78;;;;;;;;;;6217602;28;20065;-67
2021/05/31 08:17:55;;;;;;;5.20;2.67;;;;;;;;;;6201082;28;20466;-66
2021/05/31 08:20:58;;;;;;;7.47;3.22;;;;;;;;;;6215528;28;20608;-67
2021/05/31 08:23:59;;;;;;;5.90;3.00;;;;;;;;;;6214482;28;20142;-67
2021/05/31 08:27:01;;;;;;;5.82;3.00;;;;;;;;;;6213567;28;20053;-68
2021/05/31 08:30:04;;;;;;;4.70;2.97;;;;;;;;;;6220611;28;20137;-67
2021/05/31 08:33:06;;;;;;;7.10;3.08;;;;;;;;;;6215395;28;20121;-68
2021/05/31 08:36:08;;;;;;;4.53;3.33;;;;;;;;;;6209805;28;20045;-67
2021/05/31 08:39:09;;;;;;;6.82;3.22;;;;;;;;;;6226010;28;20038;-67
2021/05/31 08:42:11;;;;;;;3.92;3.15;;;;;;;;;;6210241;28;20132;-69
2021/05/31 08:45:14;;;;;;;5.13;2.95;;;;;;;;;;6208752;28;20099;-66
2021/05/31 08:48:17;;;;;;;4.27;2.70;;;;;;;;;;6204969;28;20674;-68
2021/05/31 08:51:21;;;;;;;8.20;2.90;;;;;;;;;;6211773;28;20056;-67
2021/05/31 08:54:22;;;;;;;5.93;3.22;;;;;;;;;;6205319;28;20480;-68
2021/05/31 08:57:26;;;;;;;4.55;3.03;;;;;;;;;;6206791;28;20558;-69
2021/05/31 09:00:28;;;;;;;9.05;2.80;;;;;;;;;;6201486;28;20497;-67
2021/05/31 09:03:29;;;;;;;6.88;3.05;;;;;;;;;;6217162;28;20060;-68
2021/05/31 09:06:34;;;;;;;3.90;2.97;;;;;;;;;;6210838;28;20137;-69
2021/05/31 09:09:38;;;;;;;4.53;2.80;;;;;;;;;;6210300;28;20112;-68
2021/05/31 09:12:39;;;;;;;6.20;3.83;;;;;;;;;;6207937;28;20054;-68
2021/05/31 09:15:44;;;;;;;3.78;2.85;;;;;;;;;;6213248;28;20141;-68
2021/05/31 09:18:47;;;;;;;6.05;3.30;;;;;;;;;;6223097;28;20087;-68
2021/05/31 09:21:50;;;;;;;5.32;3.05;;;;;;;;;;6213662;28;20069;-69
2021/05/31 09:24:55;;;;;;;5.82;2.95;;;;;;;;;;6216372;28;20453;-68
2021/05/31 09:28:02;;;;;;;6.53;3.20;;;;;;;;;;6219829;28;20086;-68
2021/05/31 09:31:14;;;;;;;4.63;3.05;;;;;;;;;;6199113;28;20042;-68
2021/05/31 09:34:16;;;;;;;4.47;3.35;;;;;;;;;;6203669;28;20149;-68
2021/05/31 09:37:21;;;;;;;4.55;2.83;;;;;;;;;;6201948;28;20422;-68
2021/05/31 09:40:26;;;;;;;4.05;2.70;;;;;;;;;;6206824;28;20509;-68
2021/05/31 09:43:30;;;;;;;4.03;2.97;;;;;;;;;;6204681;28;20466;-69
2021/05/31 09:46:40;;;;;;;4.28;3.00;;;;;;;;;;6211488;28;20049;-69
2021/05/31 09:49:41;;;;;;;2.97;2.47;;;;;;;;;;6216641;28;20097;-69
2021/05/31 09:52:43;;;;;;;3.90;2.67;;;;;;;;;;6209104;28;20517;-68
2021/05/31 09:55:46;;;;;;;3.57;2.50;;;;;;;;;;6221392;28;20050;-69
2021/05/31 09:58:51;;;;;;;3.75;3.30;;;;;;;;;;6224507;28;20046;-69
2021/05/31 10:01:55;;;;;;;3.33;2.90;;;;;;;;;;6216256;28;20057;-71
2021/05/31 10:08:40;;;;;;;3.42;2.83;;;;;;;;;;6218716;28;20179;-69
2021/05/31 10:11:40;;;;;;;3.83;2.78;;;;;;;;;;6214155;28;20049;-72
2021/05/31 10:14:42;;;;;;;3.72;3.13;;;;;;;;;;6218925;28;20081;-72
2021/05/31 10:17:44;;;;;;;4.15;3.03;;;;;;;;;;6218372;28;20052;-71
2021/05/31 10:20:46;;;;;;;5.15;2.75;;;;;;;;;;6216359;28;20107;-72
2021/05/31 10:23:48;;;;;;;6.05;2.97;;;;;;;;;;6215802;28;20728;-71
2021/05/31 10:26:49;;;;;;;5.05;2.97;;;;;;;;;;6217495;28;20129;-73
2021/05/31 10:29:51;;;;;;;4.82;2.42;;;;;;;;;;6215455;28;20060;-71
2021/05/31 10:32:52;;;;;;;4.50;2.25;;;;;;;;;;6208333;28;20129;-69
2021/05/31 10:35:55;;;;;;;3.40;2.17;;;;;;;;;;6210940;28;20489;-68
2021/05/31 10:39:01;;;;;;;4.00;2.50;;;;;;;;;;6208330;28;20069;-67
2021/05/31 10:42:06;;;;;;;4.13;2.47;;;;;;;;;;6213238;28;20136;-67
2021/05/31 10:45:25;;;;;;;3.75;2.17;;;;;;;;;;6215691;28;20153;-68
2021/05/31 10:48:26;;;;;;;4.82;2.60;;;;;;;;;;6212692;28;20133;-67
2021/05/31 10:51:29;;;;;;;5.22;2.20;;;;;;;;;;6217241;28;20076;-67
2021/05/31 10:54:36;;;;;;;6.03;2.33;;;;;;;;;;6218432;28;20504;-68
2021/05/31 10:57:37;;;;;;;2.42;1.60;;;;;;;;;;6206507;28;20053;-67
2021/05/31 11:00:39;;;;;;;3.38;2.40;;;;;;;;;;6208237;28;20049;-67
2021/05/31 11:03:49;;;;;;;2.25;1.85;;;;;;;;;;6206515;28;20049;-66
2021/05/31 11:06:53;;;;;;;3.42;2.40;;;;;;;;;;6205643;28;20062;-68
2021/05/31 11:09:55;;;;;;;2.80;2.15;;;;;;;;;;6207332;28;20145;-68
2021/05/31 11:13:08;;;;;;;5.88;2.03;;;;;;;;;;6213195;28;20502;-66
2021/05/31 11:16:09;;;;;;;2.72;1.63;;;;;;;;;;6222727;28;20106;-67
2021/05/31 11:19:10;;;;;;;2.90;1.38;;;;;;;;;;6212814;28;20049;-65
2021/05/31 11:22:13;;;;;;;2.90;1.40;;;;;;;;;;6207619;28;20072;-67
2021/05/31 11:25:15;;;;;;;2.58;2.22;;;;;;;;;;6207811;28;20776;-67
2021/05/31 11:28:17;;;;;;;;;;;;;;;;;;6212270;28;20449;-67
2021/05/31 11:31:20;;;;;;;6.40;2.83;;;;;;;;;;6213689;28;20001;-67
2021/05/31 11:34:21;;;;;;;8.05;3.20;;;;;;;;;;6212381;28;20579;-69
2021/05/31 11:37:22;;;;;;;5.55;2.88;;;;;;;;;;6213955;28;20045;-69
2021/05/31 11:40:27;;;;;;;5.57;3.10;;;;;;;;;;6217183;28;20469;-69
2021/05/31 11:43:30;;;;;;;6.18;2.67;;;;;;;;;;6215391;28;20065;-69
2021/05/31 11:46:31;;;;;;;4.68;2.42;;;;;;;;;;6219424;28;20133;-69
2021/05/31 11:49:38;;;;;;;4.22;3.50;;;;;;;;;;6211802;28;20632;-69
2021/05/31 11:52:39;;;;;;;5.68;3.90;;;;;;;;;;6213445;28;20050;-67
2021/05/31 11:55:42;;;;;;;6.60;3.88;;;;;;;;;;6212696;28;20130;-67
2021/05/31 11:58:43;;;;;;;6.78;3.50;;;;;;;;;;6211233;28;20145;-68
2021/05/31 12:01:50;;;;;;;5.40;3.65;;;;;;;;;;6215928;28;20074;-70
2021/05/31 12:04:52;;;;;;;5.30;3.00;;;;;;;;;;6205938;28;20136;-68
2021/05/31 12:07:53;;;;;;;4.22;3.35;;;;;;;;;;6217841;28;20057;-68
2021/05/31 12:10:56;;;;;;;5.45;3.65;;;;;;;;;;6215914;28;20124;-67
2021/05/31 12:14:00;;;;;;;;;;;;;;;;;;6217777;28;20128;-65
2021/05/31 12:17:03;;;;;;;4.32;3.40;;;;;;;;;;6220886;28;19929;-68
2021/05/31 12:20:05;;;;;;;4.63;3.05;;;;;;;;;;6212522;28;20475;-69
2021/05/31 12:23:15;;;;;;;6.38;3.15;;;;;;;;;;6214219;28;20153;-67
2021/05/31 12:26:21;;;;;;;4.00;2.67;;;;;;;;;;6225158;28;20141;-66
2021/05/31 12:29:31;;;;;;;4.28;2.40;;;;;;;;;;6210435;28;20141;-66
2021/05/31 12:32:33;;;;;;;4.28;2.35;;;;;;;;;;6215701;28;20155;-67
2021/05/31 12:35:34;;;;;;;;;;;;;;;;;;6204586;28;20125;-65
2021/05/31 12:38:39;;;;;;;5.47;2.00;;;;;;;;;;6213976;28;21331;-68
2021/05/31 12:41:44;;;;;;;2.88;2.28;;;;;;;;;;6215506;28;20610;-68
2021/05/31 12:44:45;;;;;;;3.33;2.17;;;;;;;;;;6212891;28;20205;-65
2021/05/31 12:47:48;;;;;;;3.20;2.25;;;;;;;;;;6223441;28;20535;-69
2021/05/31 12:50:50;;;;;;;5.97;2.25;;;;;;;;;;6221294;28;20076;-65
2021/05/31 12:53:59;;;;;;;3.72;3.42;;;;;;;;;;6225975;28;20053;-66
2021/05/31 12:57:09;;;;;;;5.75;3.40;;;;;;;;;;6226276;28;20569;-66
2021/05/31 13:00:13;;;;;;;3.67;2.78;;;;;;;;;;6222657;28;20056;-66
2021/05/31 13:03:17;;;;;;;3.78;2.80;;;;;;;;;;6223603;28;20531;-66
2021/05/31 13:06:18;;;;;;;5.75;3.25;;;;;;;;;;6233191;28;20068;-68
2021/05/31 13:09:23;;;;;;;3.63;2.55;;;;;;;;;;6219442;28;20053;-66
2021/05/31 13:12:26;;;;;;;3.17;2.88;;;;;;;;;;6206171;28;20146;-68
2021/05/31 13:15:48;;;;;;;3.28;2.95;;;;;;;;;;6215136;28;20049;-66
2021/05/31 13:18:49;;;;;;;3.85;3.00;;;;;;;;;;6218524;28;20046;-66
2021/05/31 13:21:59;;;;;;;4.47;3.08;;;;;;;;;;6214653;28;20140;-69
2021/05/31 13:25:00;;;;;;;6.45;3.08;;;;;;;;;;6215734;28;20050;-66
2021/05/31 13:28:11;;;;;;;6.07;3.07;;;;;;;;;;6214668;28;20089;-68
2021/05/31 13:31:15;;;;;;;4.05;3.38;;;;;;;;;;6208076;28;20137;-67
2021/05/31 13:34:16;;;;;;;3.58;2.83;;;;;;;;;;6196937;28;20054;-69
2021/05/31 13:37:17;;;;;;;4.25;3.13;;;;;;;;;;6220377;28;20037;-67
2021/05/31 13:40:27;;;;;;;6.13;3.50;;;;;;;;;;6225143;28;20046;-68
2021/05/31 13:43:30;;;;;;;5.82;3.60;;;;;;;;;;6218638;28;20045;-66
2021/05/31 13:46:32;;;;;;;6.28;3.45;;;;;;;;;;6222117;28;20116;-67
2021/05/31 13:49:33;;;;;;;;;;;;;;;;;;6218428;28;20115;-67
2021/05/31 13:52:34;;;;;;;8.60;4.10;;;;;;;;;;6211732;28;19937;-68
2021/05/31 13:55:36;;;;;;;3.05;2.47;;;;;;;;;;6223790;28;20157;-66
2021/05/31 13:58:38;;;;;;;4.13;3.07;;;;;;;;;;6214610;28;20111;-66
2021/05/31 14:01:40;;;;;;;7.43;4.60;;;;;;;;;;6221954;28;20497;-67
2021/05/31 14:04:41;;;;;;;5.72;3.60;;;;;;;;;;6216300;28;20081;-68
2021/05/31 14:07:42;;;;;;;7.53;3.70;;;;;;;;;;6222083;28;20144;-68
2021/05/31 14:10:44;;;;;;;4.45;3.78;;;;;;;;;;6222155;28;20081;-66
2021/05/31 14:13:47;;;;;;;4.72;3.47;;;;;;;;;;6222243;28;20401;-66
2021/05/31 14:16:48;;;;;;;4.97;3.63;;;;;;;;;;6221616;28;20124;-67
2021/05/31 14:19:49;;;;;;;5.68;3.80;;;;;;;;;;6216241;28;20050;-69
2021/05/31 14:22:53;;;;;;;4.78;3.63;;;;;;;;;;6214271;28;20133;-66
2021/05/31 14:25:54;;;;;;;4.63;3.08;;;;;;;;;;6215431;28;20485;-66
2021/05/31 14:28:57;;;;;;;7.50;3.60;;;;;;;;;;6215219;28;20141;-66
2021/05/31 14:31:58;;;;;;;5.90;3.45;;;;;;;;;;6213988;28;20145;-70
2021/05/31 14:35:00;;;;;;;4.10;2.88;;;;;;;;;;6208517;28;20065;-67
2021/05/31 14:38:01;;;;;;;4.45;3.85;;;;;;;;;;6216501;28;20103;-68
2021/05/31 14:41:03;;;;;;;4.43;3.90;;;;;;;;;;6216782;28;20448;-69
2021/05/31 14:44:06;;;;;;;4.23;3.83;;;;;;;;;;6192504;28;20129;-66
2021/05/31 14:47:07;;;;;;;5.47;4.28;;;;;;;;;;6219914;28;20449;-69
2021/05/31 14:50:09;;;;;;;6.28;3.75;;;;;;;;;;6202013;28;20525;-67
2021/05/31 14:53:11;;;;;;;5.10;3.47;;;;;;;;;;6214692;28;20049;-68
2021/05/31 14:56:12;;;;;;;12.77;3.67;;;;;;;;;;6182683;28;20456;-67
2021/05/31 14:59:15;;;;;;;3.72;3.00;;;;;;;;;;6206718;28;20082;-66
2021/05/31 15:02:16;;;;;;;5.00;3.15;;;;;;;;;;6206446;28;20124;-66
2021/05/31 15:05:18;;;;;;;3.95;3.53;;;;;;;;;;6203310;28;20121;-70
2021/05/31 15:08:20;;;;;;;5.13;3.47;;;;;;;;;;6203857;28;20049;-66
2021/05/31 15:11:21;;;;;;;9.85;3.38;;;;;;;;;;6206021;28;20158;-65
2021/05/31 15:14:23;;;;;;;4.72;3.45;;;;;;;;;;6209898;28;20155;-66
2021/05/31 15:17:24;;;;;;;6.65;3.67;;;;;;;;;;6214163;28;20081;-66
2021/05/31 15:20:26;;;;;;;5.97;3.85;;;;;;;;;;6212172;28;20542;-65
2021/05/31 15:23:27;;;;;;;6.90;2.90;;;;;;;;;;6202916;28;20137;-65
2021/05/31 15:26:28;;;;;;;5.45;3.58;;;;;;;;;;6202580;28;20139;-65
2021/05/31 15:29:30;;;;;;;4.85;3.10;;;;;;;;;;6205921;28;20064;-67
2021/05/31 15:32:31;;;;;;;8.23;3.90;;;;;;;;;;6213579;28;20145;-66
2021/05/31 15:35:32;;;;;;;5.88;3.08;;;;;;;;;;6204128;28;20077;-65
2021/05/31 15:38:34;;;;;;;3.50;2.83;;;;;;;;;;6212749;28;20133;-65
2021/05/31 15:41:35;;;;;;;5.72;3.47;;;;;;;;;;6212489;28;20221;-65
2021/05/31 15:44:39;;;;;;;5.35;3.38;;;;;;;;;;6216916;28;20490;-66
2021/05/31 15:47:41;;;;;;;6.28;3.25;;;;;;;;;;6214871;28;20066;-67
2021/05/31 15:50:43;;;;;;;7.50;3.80;;;;;;;;;;6217391;28;20062;-67
2021/05/31 15:53:44;;;;;;;4.43;3.70;;;;;;;;;;6217650;28;20121;-65
2021/05/31 15:56:45;;;;;;;4.18;3.70;;;;;;;;;;6219132;28;20053;-65
2021/05/31 15:59:47;;;;;;;6.97;3.20;;;;;;;;;;6212587;28;20054;-67
2021/05/31 16:02:48;;;;;;;4.23;3.80;;;;;;;;;;6206870;28;20044;-69
2021/05/31 16:05:49;;;;;;;4.50;3.13;;;;;;;;;;6211727;28;20457;-65
2021/05/31 16:08:51;;;;;;;4.65;3.40;;;;;;;;;;6224494;28;20099;-65
2021/05/31 16:11:52;;;;;;;4.05;3.03;;;;;;;;;;6213349;28;20104;-66
2021/05/31 16:14:55;;;;;;;7.20;3.70;;;;;;;;;;6223335;28;20132;-65
2021/05/31 16:17:56;;;;;;;6.25;3.00;;;;;;;;;;6220518;28;20095;-65
2021/05/31 16:20:58;;;;;;;5.03;3.20;;;;;;;;;;6219761;28;20041;-68
2021/05/31 16:24:01;;;;;;;6.03;3.92;;;;;;;;;;6223668;28;20046;-66
2021/05/31 16:27:02;;;;;;;;;;;;;;;;;;6225676;28;20163;-66
2021/05/31 16:30:06;;;;;;;7.78;3.75;;;;;;;;;;6215852;28;20347;-66
2021/05/31 16:33:08;;;;;;;5.68;3.97;;;;;;;;;;6218878;28;20193;-66
2021/05/31 16:36:09;;;;;;;4.97;3.53;;;;;;;;;;6221933;28;20421;-66
2021/05/31 16:39:10;;;;;;;5.20;3.05;;;;;;;;;;6217777;28;20535;-66
2021/05/31 16:42:11;;;;;;;5.90;2.90;;;;;;;;;;6202214;28;20434;-66
2021/05/31 16:45:14;;;;;;;4.57;3.35;;;;;;;;;;6204202;28;20115;-68
2021/05/31 16:48:15;;;;;;;5.78;3.30;;;;;;;;;;6214074;28;20120;-66
2021/05/31 16:51:16;;;;;;;5.28;3.35;;;;;;;;;;6216215;28;20065;-66
2021/05/31 16:54:17;;;;;;;6.78;2.85;;;;;;;;;;6218370;28;20123;-66
2021/05/31 16:57:18;;;;;;;4.57;3.20;;;;;;;;;;6213113;28;20077;-66
2021/05/31 17:00:24;;;;;;;6.03;2.30;;;;;;;;;;6213413;28;20054;-69
2021/05/31 17:03:25;;;;;;;7.63;3.20;;;;;;;;;;6212206;28;20547;-68
2021/05/31 17:06:29;;;;;;;8.40;3.20;;;;;;;;;;6225496;28;20049;-66
2021/05/31 17:09:31;;;;;;;6.82;3.00;;;;;;;;;;6224103;28;20053;-66
2021/05/31 17:19:13;;;;;;;4.47;3.05;;;;;;;;;;6206539;28;20038;-66
2021/05/31 17:22:15;;;;;;;4.85;2.83;;;;;;;;;;6217981;28;20061;-67
2021/05/31 17:25:16;;;;;;;5.60;2.75;;;;;;;;;;6223322;28;20203;-67
2021/05/31 17:28:17;;;;;;;4.35;3.00;;;;;;;;;;6221403;28;20109;-68
2021/05/31 17:32:27;;;;;;;3.97;3.58;;;;;;;;;;6222700;28;20131;-66
2021/05/31 17:34:45;;;;;;;3.58;2.60;;;;;;;;;;6220724;28;20055;-66
2021/05/31 17:37:47;;;;;;;4.65;2.95;;;;;;;;;;6225211;28;20116;-67
2021/05/31 17:40:49;;;;;;;5.20;3.28;;;;;;;;;;6225210;28;20058;-67
2021/05/31 17:43:50;;;;;;;4.68;3.17;;;;;;;;;;6222458;28;20132;-67
2021/05/31 17:46:52;;;;;;;5.57;2.83;;;;;;;;;;6222631;28;20535;-67
2021/05/31 17:49:56;;;;;;;4.18;3.13;;;;;;;;;;6221674;28;20071;-67
2021/05/31 17:52:57;;;;;;;6.28;3.15;;;;;;;;;;6214215;28;20096;-68
2021/05/31 17:55:58;;;;;;;8.48;3.50;;;;;;;;;;6209249;28;20046;-67
2021/05/31 17:59:00;;;;;;;4.18;3.05;;;;;;;;;;6218433;28;20494;-67
2021/05/31 18:02:05;;;;;;;4.53;3.03;;;;;;;;;;6221140;28;20046;-65
2021/05/31 18:05:08;;;;;;;3.58;2.83;;;;;;;;;;6210983;28;20045;-67
2021/05/31 18:08:12;;;;;;;5.32;2.67;;;;;;;;;;6219543;28;20049;-67
2021/05/31 18:11:13;;;;;;;3.70;2.90;;;;;;;;;;6216548;28;20050;-66
2021/05/31 18:14:14;;;;;;;3.97;3.17;;;;;;;;;;6219326;28;20138;-66
2021/05/31 18:17:16;;;;;;;5.45;3.47;;;;;;;;;;6223934;28;20054;-66
2021/05/31 18:20:19;;;;;;;4.40;3.10;;;;;;;;;;6226562;28;20041;-70
2021/05/31 18:23:20;;;;;;;4.18;3.20;;;;;;;;;;6213590;28;20074;-69
2021/05/31 18:26:21;;;;;;;4.32;3.10;;;;;;;;;;6221308;28;20065;-66
2021/05/31 18:29:22;;;;;;;7.50;3.40;;;;;;;;;;6217367;28;20054;-67
2021/05/31 18:32:25;;;;;;;5.32;3.67;;;;;;;;;;6216930;28;20053;-67
2021/05/31 18:35:37;;;;;;;5.25;3.42;;;;;;;;;;6213871;28;20073;-66